createdAt,value
2019-04-07T00:01:01.365Z,100115.37
2019-04-07T00:03:34.582Z,100114.52
2019-04-07T00:06:07.491Z,100108.70
2019-04-07T00:08:40.832Z,100107.64
2019-04-07T00:11:13.959Z,100105.53
2019-04-07T00:13:47.051Z,100105.53
2019-04-07T00:16:20.156Z,100112.22
2019-04-07T00:18:53.513Z,100112.22
2019-04-07T00:21:26.345Z,100113.22
2019-04-07T00:24:01.509Z,100113.22
2019-04-07T00:26:34.570Z,100107.05
2019-04-07T00:29:07.402Z,100106.50
2019-04-07T00:31:40.226Z,100102.13
2019-04-07T00:34:13.047Z,100101.76
2019-04-07T00:36:46.874Z,100099.42
2019-04-07T00:39:20.686Z,100096.98
2019-04-07T00:41:53.471Z,100094.61
2019-04-07T00:44:25.977Z,100096.19
2019-04-07T00:46:58.687Z,100092.06
2019-04-07T00:49:31.226Z,100092.06
2019-04-07T00:52:05.090Z,100091.87
2019-04-07T00:54:38.066Z,100089.04
2019-04-07T00:57:10.963Z,100098.73
2019-04-07T00:59:44.027Z,100088.69
2019-04-07T01:02:17.116Z,100091.92
2019-04-07T01:04:49.748Z,100088.78
2019-04-07T01:07:22.295Z,100089.27
2019-04-07T01:09:55.275Z,100085.22
2019-04-07T01:12:28.164Z,100095.20
2019-04-07T01:15:00.771Z,100089.90
2019-04-07T01:17:34.781Z,100094.19
2019-04-07T01:20:10.568Z,100085.04
2019-04-07T01:22:44.205Z,100087.73
2019-04-07T01:25:16.892Z,100088.19
2019-04-07T01:27:49.936Z,100090.75
2019-04-07T01:30:22.989Z,100089.50
2019-04-07T01:32:56.357Z,100096.97
2019-04-07T01:35:29.121Z,100096.66
2019-04-07T01:38:02.981Z,100097.51
2019-04-07T01:40:35.575Z,100098.36
2019-04-07T01:43:16.220Z,100102.28
2019-04-07T01:45:55.075Z,100108.41
2019-04-07T01:48:29.298Z,100105.52
2019-04-07T01:51:03.331Z,100101.91
2019-04-07T01:53:53.144Z,100107.75
2019-04-07T01:56:36.264Z,100105.45
2019-04-07T01:59:13.646Z,100099.72
2019-04-07T02:02:04.698Z,100102.14
2019-04-07T02:04:43.572Z,100108.92
2019-04-07T02:07:27.281Z,100106.61
2019-04-07T02:10:08.726Z,100103.08
2019-04-07T02:12:42.946Z,100100.48
2019-04-07T02:15:33.111Z,100096.87
2019-04-07T02:18:16.391Z,100103.23
2019-04-07T02:21:04.320Z,100103.45
2019-04-07T02:23:43.713Z,100099.78
2019-04-07T02:26:28.073Z,100103.69
2019-04-07T02:29:06.653Z,100100.73
2019-04-07T02:31:40.094Z,100099.27
2019-04-07T02:34:16.067Z,100094.21
2019-04-07T02:36:56.381Z,100098.25
2019-04-07T02:39:34.717Z,100099.31
2019-04-07T02:42:07.166Z,100101.92
2019-04-07T02:44:41.387Z,100105.22
2019-04-07T02:47:15.977Z,100111.13
2019-04-07T02:50:03.282Z,100104.98
2019-04-07T02:52:37.676Z,100107.91
2019-04-07T02:55:13.092Z,100105.75
2019-04-07T02:57:47.822Z,100102.29
2019-04-07T03:00:22.876Z,100104.28
2019-04-07T03:02:57.977Z,100104.73
2019-04-07T03:05:38.877Z,100102.98
2019-04-07T03:08:18.410Z,100108.19
2019-04-07T03:11:02.172Z,100102.52
2019-04-07T03:13:54.074Z,100101.52
2019-04-07T03:16:33.111Z,100101.67
2019-04-07T03:19:23.701Z,100104.11
2019-04-07T03:22:08.480Z,100104.63
2019-04-07T03:24:42.747Z,100102.26
2019-04-07T03:27:33.835Z,100106.55
2019-04-07T03:30:11.483Z,100102.69
2019-04-07T03:32:53.270Z,100100.94
2019-04-07T03:35:43.754Z,100094.95
2019-04-07T03:38:33.660Z,100102.44
2019-04-07T03:41:23.969Z,100105.12
2019-04-07T03:44:03.863Z,100092.25
2019-04-07T03:46:44.057Z,100100.06
2019-04-07T03:49:35.129Z,100108.73
2019-04-07T03:52:12.597Z,100103.89
2019-04-07T03:54:57.188Z,100111.70
2019-04-07T03:57:45.048Z,100106.58
2019-04-07T04:01:08.522Z,100108.48
2019-04-07T04:03:46.029Z,100111.28
2019-04-07T04:06:19.408Z,100114.93
2019-04-07T04:08:56.896Z,100109.95
2019-04-07T04:11:32.292Z,100111.00
2019-04-07T04:14:23.811Z,100107.76
2019-04-07T04:16:57.498Z,100113.34
2019-04-07T04:19:30.546Z,100113.23
2019-04-07T04:22:03.989Z,100111.08
2019-04-07T04:24:36.835Z,100114.09
2019-04-07T04:27:09.393Z,100120.59
2019-04-07T04:29:43.442Z,100124.28
2019-04-07T04:32:16.699Z,100127.48
2019-04-07T04:34:49.661Z,100125.51
2019-04-07T04:37:37.727Z,100125.77
2019-04-07T04:39:57.387Z,100129.08
2019-04-07T04:42:31.167Z,100129.93
2019-04-07T04:45:04.282Z,100134.99
2019-04-07T04:47:37.641Z,100131.34
2019-04-07T04:50:12.875Z,100133.67
2019-04-07T04:52:46.898Z,100133.86
2019-04-07T04:55:20.873Z,100136.44
2019-04-07T04:57:54.500Z,100138.95
2019-04-07T05:00:27.213Z,100132.17
2019-04-07T05:03:00.952Z,100137.91
2019-04-07T05:05:34.465Z,100135.81
2019-04-07T05:08:07.220Z,100140.40
2019-04-07T05:10:39.716Z,100140.61
2019-04-07T05:13:12.495Z,100140.16
2019-04-07T05:15:45.630Z,100136.06
2019-04-07T05:18:18.246Z,100146.39
2019-04-07T05:20:51.471Z,100138.92
2019-04-07T05:23:25.253Z,100146.31
2019-04-07T05:25:58.278Z,100151.06
2019-04-07T05:28:33.729Z,100146.52
2019-04-07T05:31:05.666Z,100152.79
2019-04-07T05:33:38.462Z,100159.91
2019-04-07T05:36:11.310Z,100163.30
2019-04-07T05:38:44.561Z,100169.32
2019-04-07T05:41:17.371Z,100164.89
2019-04-07T05:43:50.280Z,100166.67
2019-04-07T05:46:23.818Z,100161.64
2019-04-07T05:48:56.653Z,100163.11
2019-04-07T05:51:30.060Z,100161.36
2019-04-07T05:54:03.627Z,100163.33
2019-04-07T05:56:36.891Z,100169.73
2019-04-07T05:59:12.006Z,100176.37
2019-04-07T06:01:44.548Z,100170.55
2019-04-07T06:04:19.159Z,100168.88
2019-04-07T06:06:54.862Z,100172.02
2019-04-07T06:09:26.409Z,100161.50
2019-04-07T06:11:59.872Z,100161.50
2019-04-07T06:14:32.636Z,100154.77
2019-04-07T06:17:06.409Z,100172.48
2019-04-07T06:19:41.206Z,100171.93
2019-04-07T06:22:13.370Z,100162.84
2019-04-07T06:24:46.121Z,100170.92
2019-04-07T06:27:18.972Z,100175.05
2019-04-07T06:29:52.191Z,100178.64
2019-04-07T06:32:26.722Z,100172.84
2019-04-07T06:34:59.531Z,100169.19
2019-04-07T06:37:33.063Z,100166.45
2019-04-07T06:40:06.929Z,100171.33
2019-04-07T06:42:40.482Z,100171.99
2019-04-07T06:45:15.086Z,100175.13
2019-04-07T06:47:53.422Z,100173.42
2019-04-07T06:50:48.613Z,100162.62
2019-04-07T06:53:18.613Z,100174.06
2019-04-07T06:56:08.921Z,100174.32
2019-04-07T06:59:00.321Z,100171.28
2019-04-07T07:01:38.552Z,100173.34
2019-04-07T07:04:29.107Z,100168.38
2019-04-07T07:07:07.317Z,100172.01
2019-04-07T07:09:51.937Z,100173.80
2019-04-07T07:12:38.710Z,100178.05
2019-04-07T07:15:25.816Z,100177.59
2019-04-07T07:18:10.254Z,100178.66
2019-04-07T07:20:51.620Z,100174.69
2019-04-07T07:23:28.647Z,100179.02
2019-04-07T07:26:03.146Z,100184.41
2019-04-07T07:28:36.047Z,100184.17
2019-04-07T07:31:10.466Z,100182.20
2019-04-07T07:33:43.972Z,100180.47
2019-04-07T07:36:20.729Z,100181.17
2019-04-07T07:38:59.998Z,100184.44
2019-04-07T07:41:26.331Z,100188.87
2019-04-07T07:44:03.189Z,100180.16
2019-04-07T07:46:34.657Z,100185.86
2019-04-07T07:49:07.582Z,100188.66
2019-04-07T07:51:40.592Z,100188.46
2019-04-07T07:54:15.964Z,100190.25
2019-04-07T07:56:51.165Z,100193.12
2019-04-07T07:59:24.065Z,100192.06
2019-04-07T08:01:57.652Z,100198.06
2019-04-07T08:04:30.613Z,100195.81
2019-04-07T08:07:03.335Z,100197.53
2019-04-07T08:09:35.885Z,100198.43
2019-04-07T08:12:09.601Z,100193.73
2019-04-07T08:14:43.749Z,100195.17
2019-04-07T08:17:16.225Z,100201.66
2019-04-07T08:19:49.261Z,100195.75
2019-04-07T08:22:31.319Z,100203.03
2019-04-07T08:24:56.666Z,100199.76
2019-04-07T08:27:31.715Z,100205.21
2019-04-07T08:30:09.949Z,100200.94
2019-04-07T08:32:39.897Z,100196.52
2019-04-07T08:35:13.101Z,100198.91
2019-04-07T08:37:47.876Z,100198.84
2019-04-07T08:40:21.503Z,100194.55
2019-04-07T08:42:54.121Z,100198.28
2019-04-07T08:45:29.977Z,100193.83
2019-04-07T08:48:01.227Z,100195.10
2019-04-07T08:50:34.271Z,100191.28
2019-04-07T08:53:10.335Z,100187.59
2019-04-07T08:55:42.778Z,100189.28
2019-04-07T08:58:25.167Z,100187.31
2019-04-07T09:00:53.738Z,100191.26
2019-04-07T09:03:26.576Z,100190.79
2019-04-07T09:05:59.792Z,100186.80
2019-04-07T09:08:34.707Z,100186.65
2019-04-07T09:11:08.995Z,100189.88
2019-04-07T09:13:44.100Z,100186.49
2019-04-07T09:16:25.050Z,100186.11
2019-04-07T09:19:08.366Z,100178.32
2019-04-07T09:21:59.141Z,100180.00
2019-04-07T09:24:33.555Z,100172.52
2019-04-07T09:27:08.101Z,100182.94
2019-04-07T09:29:53.391Z,100179.02
2019-04-07T09:32:29.078Z,100183.73
2019-04-07T09:35:22.878Z,100189.64
2019-04-07T09:38:14.363Z,100190.42
2019-04-07T09:40:48.790Z,100188.41
2019-04-07T09:43:32.617Z,100181.34
2019-04-07T09:46:14.714Z,100177.27
2019-04-07T09:49:07.809Z,100174.97
2019-04-07T09:51:41.529Z,100167.48
2019-04-07T09:54:19.186Z,100169.22
2019-04-07T09:57:09.654Z,100173.75
2019-04-07T09:59:56.881Z,100175.08
2019-04-07T10:02:34.507Z,100170.25
2019-04-07T10:05:11.143Z,100168.43
2019-04-07T10:08:00.408Z,100165.02
2019-04-07T10:10:51.175Z,100179.13
2019-04-07T10:13:25.415Z,100170.97
2019-04-07T10:16:16.477Z,100172.06
2019-04-07T10:18:50.976Z,100169.08
2019-04-07T10:21:26.422Z,100172.80
2019-04-07T10:24:17.010Z,100172.02
2019-04-07T10:26:51.843Z,100172.63
2019-04-07T10:29:41.265Z,100174.45
2019-04-07T10:32:34.040Z,100167.52
2019-04-07T10:35:12.685Z,100170.24
2019-04-07T10:38:00.709Z,100165.89
2019-04-07T10:40:40.038Z,100165.02
2019-04-07T10:43:15.458Z,100169.73
2019-04-07T10:45:50.492Z,100162.77
2019-04-07T10:48:41.030Z,100168.83
2019-04-07T10:51:30.876Z,100166.23
2019-04-07T10:54:14.330Z,100162.41
2019-04-07T10:56:51.748Z,100161.56
2019-04-07T10:59:32.208Z,100155.26
2019-04-07T11:02:09.111Z,100156.16
2019-04-07T11:04:45.048Z,100163.05
2019-04-07T11:07:34.005Z,100157.48
2019-04-07T11:10:15.905Z,100164.07
2019-04-07T11:12:58.297Z,100158.84
2019-04-07T11:15:39.239Z,100168.89
2019-04-07T11:18:20.669Z,100162.42
2019-04-07T11:21:02.166Z,100158.81
2019-04-07T11:23:53.405Z,100157.57
2019-04-07T11:26:25.990Z,100158.95
2019-04-07T11:29:04.660Z,100150.95
2019-04-07T11:31:39.045Z,100155.44
2019-04-07T11:34:16.215Z,100146.52
2019-04-07T11:36:57.696Z,100150.50
2019-04-07T11:39:35.159Z,100144.16
2019-04-07T11:42:10.040Z,100144.75
2019-04-07T11:44:47.417Z,100147.45
2019-04-07T11:47:26.230Z,100141.87
2019-04-07T11:49:59.263Z,100148.08
2019-04-07T11:52:36.556Z,100138.47
2019-04-07T11:55:31.278Z,100140.06
2019-04-07T11:58:30.891Z,100141.56
2019-04-07T12:01:12.775Z,100139.41
2019-04-07T12:03:55.804Z,100129.78
2019-04-07T12:06:31.482Z,100133.34
2019-04-07T12:09:09.021Z,100128.81
2019-04-07T12:11:41.857Z,100130.16
2019-04-07T12:14:22.564Z,100132.16
2019-04-07T12:17:13.769Z,100128.50
2019-04-07T12:20:05.335Z,100134.32
2019-04-07T12:22:55.612Z,100131.45
2019-04-07T12:25:33.337Z,100132.75
2019-04-07T12:28:09.779Z,100134.06
2019-04-07T12:30:48.081Z,100121.31
2019-04-07T12:33:22.948Z,100127.83
2019-04-07T12:36:09.821Z,100126.50
2019-04-07T12:38:46.716Z,100114.97
2019-04-07T12:41:27.742Z,100114.13
2019-04-07T12:44:09.416Z,100116.94
2019-04-07T12:46:44.246Z,100117.09
2019-04-07T12:49:21.530Z,100110.28
2019-04-07T12:52:04.300Z,100115.44
2019-04-07T12:54:55.773Z,100116.77
2019-04-07T12:57:30.805Z,100111.92
2019-04-07T13:00:10.286Z,100117.13
2019-04-07T13:02:54.376Z,100110.12
2019-04-07T13:05:36.856Z,100107.96
2019-04-07T13:08:14.533Z,100109.45
2019-04-07T13:10:49.409Z,100102.58
2019-04-07T13:13:42.224Z,100108.10
2019-04-07T13:16:21.429Z,100101.31
2019-04-07T13:19:13.142Z,100093.39
2019-04-07T13:21:58.643Z,100092.88
2019-04-07T13:24:48.806Z,100092.74
2019-04-07T13:27:23.546Z,100090.56
2019-04-07T13:29:56.442Z,100092.71
2019-04-07T13:32:41.681Z,100093.56
2019-04-07T13:35:22.255Z,100093.91
2019-04-07T13:38:09.420Z,100084.20
2019-04-07T13:40:46.759Z,100086.16
2019-04-07T13:43:19.377Z,100088.02
2019-04-07T13:46:04.261Z,100093.04
2019-04-07T13:48:48.597Z,100088.00
2019-04-07T13:51:27.966Z,100086.98
2019-04-07T13:54:08.208Z,100086.37
2019-04-07T13:56:59.053Z,100084.86
2019-04-07T13:59:49.651Z,100082.06
2019-04-07T14:02:35.948Z,100077.55
2019-04-07T14:05:11.576Z,100086.86
2019-04-07T14:07:57.986Z,100084.83
2019-04-07T14:10:44.986Z,100078.83
2019-04-07T14:13:19.990Z,100081.36
2019-04-07T14:15:53.167Z,100088.54
2019-04-07T14:18:45.072Z,100081.70
2019-04-07T14:21:22.796Z,100078.20
2019-04-07T14:24:01.538Z,100083.17
2019-04-07T14:26:38.819Z,100076.50
2019-04-07T14:29:18.447Z,100074.70
2019-04-07T14:31:59.801Z,100073.17
2019-04-07T14:34:50.949Z,100076.44
2019-04-07T14:37:36.242Z,100072.96
2019-04-07T14:40:11.881Z,100075.64
2019-04-07T14:42:47.063Z,100076.02
2019-04-07T14:45:23.193Z,100076.17
2019-04-07T14:47:58.945Z,100076.36
2019-04-07T14:50:49.866Z,100074.83
2019-04-07T14:53:34.390Z,100075.80
2019-04-07T14:56:22.631Z,100075.64
2019-04-07T14:59:09.295Z,100068.66
2019-04-07T15:01:50.155Z,100068.66
2019-04-07T15:04:25.596Z,100073.79
2019-04-07T15:07:10.061Z,100071.95
2019-04-07T15:09:48.055Z,100069.25
2019-04-07T15:12:26.051Z,100067.58
2019-04-07T15:14:58.956Z,100069.56
2019-04-07T15:17:32.942Z,100069.11
2019-04-07T15:20:12.333Z,100069.94
2019-04-07T15:22:44.816Z,100070.27
2019-04-07T15:25:18.303Z,100067.58
2019-04-07T15:27:52.767Z,100066.16
2019-04-07T15:30:26.446Z,100067.27
2019-04-07T15:33:01.599Z,100065.09
2019-04-07T15:35:34.128Z,100071.08
2019-04-07T15:38:07.356Z,100065.39
2019-04-07T15:40:40.731Z,100071.22
2019-04-07T15:43:13.521Z,100066.36
2019-04-07T15:45:48.612Z,100067.23
2019-04-07T15:48:25.786Z,100073.23
2019-04-07T15:51:00.587Z,100075.70
2019-04-07T15:53:30.953Z,100071.00
2019-04-07T15:56:06.494Z,100078.32
2019-04-07T15:58:38.301Z,100079.41
2019-04-07T16:01:11.790Z,100078.05
2019-04-07T16:03:47.621Z,100080.67
2019-04-07T16:06:19.551Z,100081.36
2019-04-07T16:08:53.142Z,100084.45
2019-04-07T16:11:28.320Z,100084.09
2019-04-07T16:14:01.535Z,100089.02
2019-04-07T16:16:34.775Z,100093.30
2019-04-07T16:19:10.823Z,100091.16
2019-04-07T16:21:44.010Z,100089.72
2019-04-07T16:24:17.781Z,100089.84
2019-04-07T16:26:51.443Z,100095.13
2019-04-07T16:29:24.279Z,100099.56
2019-04-07T16:31:58.684Z,100100.69
2019-04-07T16:34:31.891Z,100101.28
2019-04-07T16:37:04.925Z,100097.20
2019-04-07T16:39:37.767Z,100097.69
2019-04-07T16:42:11.382Z,100099.61
2019-04-07T16:44:45.956Z,100101.69
2019-04-07T16:47:24.443Z,100103.45
2019-04-07T16:49:54.662Z,100112.88
2019-04-07T16:52:31.120Z,100111.80
2019-04-07T16:55:02.541Z,100110.05
2019-04-07T16:57:35.100Z,100113.41
2019-04-07T17:00:15.281Z,100111.44
2019-04-07T17:02:48.201Z,100112.63
2019-04-07T17:05:21.981Z,100112.81
2019-04-07T17:07:56.892Z,100119.13
2019-04-07T17:10:32.821Z,100116.17
2019-04-07T17:13:15.309Z,100120.87
2019-04-07T17:15:40.961Z,100114.25
2019-04-07T17:18:39.736Z,100114.75
2019-04-07T17:21:15.856Z,100116.44
2019-04-07T17:23:53.199Z,100120.56
2019-04-07T17:26:24.202Z,100118.75
2019-04-07T17:28:58.577Z,100123.41
2019-04-07T17:31:32.677Z,100125.55
2019-04-07T17:34:09.919Z,100125.02
2019-04-07T17:36:41.535Z,100132.38
2019-04-07T17:39:14.462Z,100130.22
2019-04-07T17:41:49.878Z,100137.20
2019-04-07T17:44:32.586Z,100126.47
2019-04-07T17:47:19.880Z,100136.91
2019-04-07T17:50:06.755Z,100136.53
2019-04-07T17:52:58.038Z,100132.08
2019-04-07T17:55:41.848Z,100141.89
2019-04-07T17:58:22.210Z,100141.95
2019-04-07T18:01:12.762Z,100150.49
2019-04-07T18:03:48.576Z,100155.59
2019-04-07T18:06:31.301Z,100157.54
2019-04-07T18:09:12.780Z,100162.12
2019-04-07T18:12:03.034Z,100168.10
2019-04-07T18:14:39.511Z,100172.66
2019-04-07T18:17:15.042Z,100171.59
2019-04-07T18:20:08.361Z,100175.84
2019-04-07T18:22:58.107Z,100179.78
2019-04-07T18:25:34.368Z,100181.55
2019-04-07T18:28:09.421Z,100188.02
2019-04-07T18:31:03.057Z,100192.31
2019-04-07T18:33:38.631Z,100188.55
2019-04-07T18:36:29.215Z,100193.80
2019-04-07T18:39:17.342Z,100196.91
2019-04-07T18:42:11.437Z,100198.67
2019-04-07T18:44:55.308Z,100199.00
2019-04-07T18:47:35.761Z,100210.37
2019-04-07T18:50:29.065Z,100209.73
2019-04-07T18:53:05.333Z,100208.70
2019-04-07T18:55:39.066Z,100210.06
2019-04-07T18:58:31.208Z,100210.47
2019-04-07T19:01:08.624Z,100213.95
2019-04-07T19:03:40.635Z,100215.38
2019-04-07T19:06:18.113Z,100217.19
2019-04-07T19:08:54.378Z,100224.72
2019-04-07T19:11:28.596Z,100221.88
2019-04-07T19:14:30.816Z,100219.63
2019-04-07T19:16:50.727Z,100224.17
2019-04-07T19:19:33.387Z,100224.45
2019-04-07T19:22:24.784Z,100219.81
2019-04-07T19:25:17.267Z,100229.77
2019-04-07T19:28:08.123Z,100228.97
2019-04-07T19:30:59.265Z,100224.78
2019-04-07T19:33:33.925Z,100224.94
2019-04-07T19:36:27.391Z,100222.17
2019-04-07T19:39:02.692Z,100221.56
2019-04-07T19:41:56.285Z,100224.86
2019-04-07T19:44:38.950Z,100224.32
2019-04-07T19:47:22.896Z,100213.55
2019-04-07T19:50:13.655Z,100216.17
2019-04-07T19:53:10.010Z,100213.47
2019-04-07T19:55:47.252Z,100216.31
2019-04-07T19:58:26.376Z,100219.98
2019-04-07T20:01:12.754Z,100217.38
2019-04-07T20:03:50.356Z,100214.64
2019-04-07T20:06:27.929Z,100217.83
2019-04-07T20:09:20.076Z,100215.87
2019-04-07T20:11:55.406Z,100219.70
2019-04-07T20:14:51.967Z,100219.16
2019-04-07T20:17:38.808Z,100214.56
2019-04-07T20:20:14.012Z,100217.91
2019-04-07T20:23:00.186Z,100212.20
2019-04-07T20:25:44.888Z,100211.72
2019-04-07T20:28:30.395Z,100214.33
2019-04-07T20:31:23.432Z,100219.47
2019-04-07T20:34:02.142Z,100212.81
2019-04-07T20:36:38.555Z,100222.73
2019-04-07T20:39:27.450Z,100217.39
2019-04-07T20:42:01.007Z,100212.11
2019-04-07T20:44:36.521Z,100212.85
2019-04-07T20:47:27.299Z,100210.48
2019-04-07T20:50:05.529Z,100212.08
2019-04-07T20:52:46.108Z,100205.66
2019-04-07T20:55:39.539Z,100205.31
2019-04-07T20:58:25.038Z,100207.05
2019-04-07T21:01:04.640Z,100214.03
2019-04-07T21:03:51.947Z,100213.64
2019-04-07T21:06:44.155Z,100220.43
2019-04-07T21:09:35.478Z,100214.77
2019-04-07T21:12:19.265Z,100218.20
2019-04-07T21:15:18.202Z,100213.27
2019-04-07T21:17:42.727Z,100213.27
2019-04-07T21:20:18.159Z,100221.56
2019-04-07T21:22:52.650Z,100221.26
2019-04-07T21:25:43.352Z,100220.00
2019-04-07T21:28:18.236Z,100222.35
2019-04-07T21:30:55.762Z,100223.25
2019-04-07T21:33:45.761Z,100223.43
2019-04-07T21:36:18.236Z,100224.45
2019-04-07T21:38:58.446Z,100222.46
2019-04-07T21:41:44.226Z,100221.41
2019-04-07T21:44:27.063Z,100218.11
2019-04-07T21:47:02.164Z,100218.11
2019-04-07T21:49:38.223Z,100209.64
2019-04-07T21:52:18.676Z,100209.64
2019-04-07T21:55:00.776Z,100218.03
2019-04-07T21:57:52.511Z,100218.88
2019-04-07T22:00:32.877Z,100217.63
2019-04-07T22:03:18.396Z,100217.56
2019-04-07T22:06:09.551Z,100219.41
2019-04-07T22:08:45.442Z,100221.02
2019-04-07T22:11:22.617Z,100213.89
2019-04-07T22:13:53.412Z,100216.66
2019-04-07T22:16:30.757Z,100218.19
2019-04-07T22:19:01.485Z,100214.89
2019-04-07T22:21:34.172Z,100218.48
2019-04-07T22:24:06.999Z,100218.57
2019-04-07T22:26:40.539Z,100224.81
2019-04-07T22:29:13.260Z,100221.88
2019-04-07T22:31:47.886Z,100222.41
2019-04-07T22:34:20.816Z,100220.79
2019-04-07T22:36:53.745Z,100221.33
2019-04-07T22:39:28.847Z,100219.83
2019-04-07T22:42:02.218Z,100222.44
2019-04-07T22:44:35.573Z,100220.64
2019-04-07T22:47:09.416Z,100216.64
2019-04-07T22:49:43.061Z,100220.27
2019-04-07T22:52:17.662Z,100220.22
2019-04-07T22:54:49.975Z,100216.23
2019-04-07T22:57:23.330Z,100215.17
2019-04-07T22:59:56.651Z,100217.56
2019-04-07T23:02:29.793Z,100217.36
2019-04-07T23:05:03.017Z,100220.05
2019-04-07T23:07:35.703Z,100224.97
2019-04-07T23:10:09.090Z,100217.67
2019-04-07T23:12:42.319Z,100215.89
2019-04-07T23:15:16.736Z,100212.38
2019-04-07T23:17:49.412Z,100221.43
2019-04-07T23:20:22.138Z,100212.83
2019-04-07T23:22:54.941Z,100218.05
2019-04-07T23:25:28.092Z,100216.97
2019-04-07T23:28:00.811Z,100215.71
2019-04-07T23:30:33.465Z,100222.76
2019-04-07T23:33:06.337Z,100219.78
2019-04-07T23:35:39.350Z,100223.77
2019-04-07T23:38:12.280Z,100222.98
2019-04-07T23:40:44.911Z,100225.61
2019-04-07T23:43:17.722Z,100235.05
2019-04-07T23:45:50.113Z,100228.47
2019-04-07T23:48:22.796Z,100235.72
2019-04-07T23:50:56.151Z,100227.83
2019-04-07T23:54:11.230Z,100233.45
2019-04-07T23:56:45.080Z,100234.30
2019-04-07T23:59:17.451Z,100233.78
